Time;durP1;ratioP1;P1;durP2;ratioP2;P2;SDS_P1;SDS_P2;PMS_P1;PMS_P2;Temp;Humidity;BMP_temperature;BMP_pressure;BME280_temperature;BME280_humidity;BME280_pressure;Samples;Min_cycle;Max_cycle;Signal;HPM_P1;HPM_P2
2022/08/20 00:00:13;;;;;;;;;;;19.70;99.90;;;;;;5028993;28;19975;-70
2022/08/20 00:02:43;;;;;;;;;;;19.70;99.90;;;;;;5029647;28;20306;-70
2022/08/20 00:05:09;;;;;;;;;;;19.70;99.90;;;;;;5029584;28;19924;-70
2022/08/20 00:07:34;;;;;;;;;;;19.70;99.90;;;;;;5029882;28;20390;-70
2022/08/20 00:10:00;;;;;;;;;;;19.70;99.90;;;;;;5027836;28;20007;-70
2022/08/20 00:12:26;;;;;;;;;;;19.60;99.90;;;;;;5029381;28;19972;-70
2022/08/20 00:14:51;;;;;;;;;;;19.70;99.90;;;;;;5029210;28;20027;-70
2022/08/20 00:17:17;;;;;;;;;;;19.60;99.90;;;;;;5029614;28;20479;-70
2022/08/20 00:19:42;;;;;;;;;;;19.70;99.90;;;;;;5029262;28;19928;-70
2022/08/20 00:22:08;;;;;;;;;;;19.70;99.90;;;;;;5029088;28;19967;-70
2022/08/20 00:24:33;;;;;;;;;;;19.70;99.90;;;;;;5029655;28;19925;-70
2022/08/20 00:26:59;;;;;;;;;;;19.70;99.90;;;;;;5031333;28;20326;-70
2022/08/20 00:29:24;;;;;;;;;;;19.70;99.90;;;;;;5033063;28;19921;-69
2022/08/20 00:31:50;;;;;;;;;;;19.70;99.90;;;;;;5032810;28;19933;-70
2022/08/20 00:34:15;;;;;;;;;;;19.70;99.90;;;;;;5032573;28;19928;-70
2022/08/20 00:36:41;;;;;;;;;;;19.70;99.90;;;;;;5032872;28;19921;-70
2022/08/20 00:39:07;;;;;;;;;;;19.70;99.90;;;;;;5033062;28;20020;-70
2022/08/20 00:41:32;;;;;;;;;;;19.70;99.90;;;;;;5032864;28;20008;-70
2022/08/20 00:44:12;;;;;;;;;;;19.70;99.90;;;;;;5033075;28;20010;-70
2022/08/20 00:46:38;;;;;;;;;;;19.60;99.90;;;;;;5031273;28;19983;-70
2022/08/20 00:49:06;;;;;;;;;;;19.60;99.90;;;;;;5031330;28;19925;-70
2022/08/20 00:51:37;;;;;;;;;;;19.60;99.90;;;;;;5031974;28;19967;-70
2022/08/20 00:54:21;;;;;;;;;;;19.60;99.90;;;;;;5031670;28;20338;-70
2022/08/20 00:56:49;;;;;;;;;;;19.50;99.90;;;;;;5031797;28;19921;-70
2022/08/20 00:59:22;;;;;;;;;;;19.50;99.90;;;;;;5023747;28;20330;-70
2022/08/20 01:01:48;;;;;;;;;;;19.40;99.90;;;;;;5031677;28;20376;-70
2022/08/20 01:04:13;;;;;;;;;;;19.40;99.90;;;;;;5032012;28;19928;-70
2022/08/20 01:06:40;;;;;;;;;;;19.40;99.90;;;;;;5024924;28;19921;-70
2022/08/20 01:09:06;;;;;;;;;;;19.40;99.90;;;;;;5030703;28;19921;-70
2022/08/20 01:11:33;;;;;;;;;;;19.30;99.90;;;;;;5031514;28;19975;-70
2022/08/20 01:14:49;;;;;;;;;;;19.30;99.90;;;;;;5031739;28;19921;-70
2022/08/20 01:16:53;;;;;;;;;;;19.20;99.90;;;;;;5030555;28;19928;-70
2022/08/20 01:19:22;;;;;;;;;;;19.20;99.90;;;;;;5031873;28;19920;-70
2022/08/20 01:21:48;;;;;;;;;;;19.20;99.90;;;;;;5031287;28;20405;-70
2022/08/20 01:24:23;;;;;;;;;;;19.10;99.90;;;;;;5023389;28;19980;-70
2022/08/20 01:26:49;;;;;;;;;;;19.10;99.90;;;;;;5031781;28;20014;-70
2022/08/20 01:29:17;;;;;;;;;;;19.10;99.90;;;;;;5030823;28;20375;-71
2022/08/20 01:31:43;;;;;;;;;;;19.10;99.90;;;;;;5031435;28;20259;-70
2022/08/20 01:34:11;;;;;;;;;;;19.10;99.90;;;;;;5031405;28;19960;-70
2022/08/20 01:36:38;;;;;;;;;;;19.00;99.90;;;;;;5031295;28;19983;-72
2022/08/20 01:39:06;;;;;;;;;;;19.00;99.90;;;;;;5030183;28;19937;-72
2022/08/20 01:41:47;;;;;;;;;;;19.00;99.90;;;;;;5031469;28;20334;-72
2022/08/20 01:44:13;;;;;;;;;;;19.00;99.90;;;;;;5017493;28;19921;-72
2022/08/20 01:46:41;;;;;;;;;;;19.00;99.90;;;;;;5030934;28;19925;-70
2022/08/20 01:49:15;;;;;;;;;;;18.90;99.90;;;;;;5029745;28;20020;-70
2022/08/20 01:51:40;;;;;;;;;;;18.90;99.90;;;;;;5030939;28;19925;-70
2022/08/20 01:54:06;;;;;;;;;;;18.90;99.90;;;;;;5030582;28;19921;-71
2022/08/20 01:56:33;;;;;;;;;;;18.90;99.90;;;;;;5030809;28;20428;-70
2022/08/20 01:59:00;;;;;;;;;;;18.90;99.90;;;;;;5021722;28;20346;-70
2022/08/20 02:01:25;;;;;;;;;;;18.90;99.90;;;;;;5030797;28;19968;-70
2022/08/20 02:03:52;;;;;;;;;;;19.00;99.90;;;;;;5031062;28;19968;-72
2022/08/20 02:06:18;;;;;;;;;;;18.90;99.90;;;;;;5030332;28;19925;-72
2022/08/20 02:08:44;;;;;;;;;;;18.90;99.90;;;;;;5030947;28;19921;-72
2022/08/20 02:11:10;;;;;;;;;;;18.90;99.90;;;;;;5030506;28;19921;-71
2022/08/20 02:13:35;;;;;;;;;;;18.90;99.90;;;;;;5030650;28;19921;-71
2022/08/20 02:16:01;;;;;;;;;;;18.90;99.90;;;;;;5029946;28;19966;-71
2022/08/20 02:18:27;;;;;;;;;;;18.80;99.90;;;;;;5030809;28;19929;-71
2022/08/20 02:20:52;;;;;;;;;;;18.70;99.90;;;;;;5030432;28;19992;-71
2022/08/20 02:23:18;;;;;;;;;;;18.70;99.90;;;;;;5030347;28;20363;-71
2022/08/20 02:25:46;;;;;;;;;;;18.70;99.90;;;;;;5030421;28;19921;-71
2022/08/20 02:28:13;;;;;;;;;;;18.60;99.90;;;;;;5029198;28;19951;-71
2022/08/20 02:30:41;;;;;;;;;;;18.60;99.90;;;;;;5029924;28;20418;-71
2022/08/20 02:33:08;;;;;;;;;;;18.60;99.90;;;;;;5030594;28;19932;-71
2022/08/20 02:35:34;;;;;;;;;;;18.50;99.90;;;;;;5029869;28;19971;-71
2022/08/20 02:38:00;;;;;;;;;;;18.50;99.90;;;;;;5030519;28;19964;-71
2022/08/20 02:40:26;;;;;;;;;;;18.50;99.90;;;;;;5030335;28;20391;-71
2022/08/20 02:42:52;;;;;;;;;;;18.40;99.90;;;;;;5030219;28;20366;-71
2022/08/20 02:45:18;;;;;;;;;;;18.40;99.90;;;;;;5029187;28;19928;-72
2022/08/20 02:47:44;;;;;;;;;;;18.30;99.90;;;;;;5030151;28;19964;-72
2022/08/20 02:50:12;;;;;;;;;;;18.30;99.90;;;;;;5029660;28;20346;-71
2022/08/20 02:52:38;;;;;;;;;;;18.30;99.90;;;;;;5028851;28;19968;-71
2022/08/20 02:55:04;;;;;;;;;;;18.20;99.90;;;;;;5029609;28;20394;-71
2022/08/20 02:57:29;;;;;;;;;;;18.20;99.90;;;;;;5026385;28;20563;-71
2022/08/20 02:59:55;;;;;;;;;;;18.10;99.90;;;;;;5025113;28;20020;-71
2022/08/20 03:02:20;;;;;;;;;;;18.10;99.90;;;;;;5030020;28;20015;-71
2022/08/20 03:04:46;;;;;;;;;;;18.00;99.90;;;;;;5029378;28;19921;-71
2022/08/20 03:07:13;;;;;;;;;;;18.00;99.90;;;;;;5029772;28;19921;-71
2022/08/20 03:09:39;;;;;;;;;;;18.00;99.90;;;;;;5030013;28;19972;-70
2022/08/20 03:12:06;;;;;;;;;;;17.90;99.90;;;;;;5029316;28;19979;-71
2022/08/20 03:14:32;;;;;;;;;;;17.90;99.90;;;;;;5028858;28;20755;-72
2022/08/20 03:16:58;;;;;;;;;;;17.80;99.90;;;;;;5029802;28;20007;-71
2022/08/20 03:19:24;;;;;;;;;;;17.80;99.90;;;;;;5029592;28;19929;-71
2022/08/20 03:21:50;;;;;;;;;;;17.80;99.90;;;;;;5029382;28;20248;-71
2022/08/20 03:24:16;;;;;;;;;;;17.70;99.90;;;;;;5028299;28;19984;-71
2022/08/20 03:26:41;;;;;;;;;;;17.70;99.90;;;;;;5029260;28;19927;-71
2022/08/20 03:29:06;;;;;;;;;;;17.60;99.90;;;;;;5029287;28;19933;-71
2022/08/20 03:31:32;;;;;;;;;;;17.60;99.90;;;;;;5029136;28;20291;-71
2022/08/20 03:33:58;;;;;;;;;;;17.60;99.90;;;;;;5029360;28;19967;-71
2022/08/20 03:36:24;;;;;;;;;;;17.60;99.90;;;;;;5029110;28;20367;-71
2022/08/20 03:38:50;;;;;;;;;;;17.60;99.90;;;;;;5029225;28;20004;-70
2022/08/20 03:41:16;;;;;;;;;;;17.50;99.90;;;;;;5029008;28;20004;-71
2022/08/20 03:43:41;;;;;;;;;;;17.50;99.90;;;;;;5029170;28;19968;-71
2022/08/20 03:46:07;;;;;;;;;;;17.40;99.90;;;;;;5029050;28;19925;-71
2022/08/20 03:48:33;;;;;;;;;;;17.40;99.90;;;;;;5029391;28;20358;-70
2022/08/20 03:50:59;;;;;;;;;;;17.40;99.90;;;;;;5028956;28;19972;-70
2022/08/20 03:53:28;;;;;;;;;;;17.30;99.90;;;;;;5027826;28;19921;-71
2022/08/20 03:55:54;;;;;;;;;;;17.30;99.90;;;;;;5028962;28;19936;-71
2022/08/20 03:58:20;;;;;;;;;;;17.30;99.90;;;;;;5020699;28;19925;-71
2022/08/20 04:00:49;;;;;;;;;;;17.30;99.90;;;;;;5028109;28;20368;-71
2022/08/20 04:03:15;;;;;;;;;;;17.20;99.90;;;;;;5033171;28;19925;-71
2022/08/20 04:05:41;;;;;;;;;;;17.20;99.90;;;;;;5033120;28;19932;-71
2022/08/20 04:08:08;;;;;;;;;;;17.20;99.90;;;;;;5032950;28;20299;-71
2022/08/20 04:10:34;;;;;;;;;;;17.20;99.90;;;;;;5032711;28;19967;-70
2022/08/20 04:12:59;;;;;;;;;;;17.20;99.90;;;;;;5033145;28;19925;-71
2022/08/20 04:15:25;;;;;;;;;;;17.20;99.90;;;;;;5033596;28;19979;-71
2022/08/20 04:17:52;;;;;;;;;;;17.10;99.90;;;;;;5033149;28;20001;-70
2022/08/20 04:20:22;;;;;;;;;;;17.10;99.90;;;;;;5033144;28;19946;-71
2022/08/20 04:22:48;;;;;;;;;;;17.10;99.90;;;;;;5031700;28;20032;-71
2022/08/20 04:25:14;;;;;;;;;;;17.10;99.90;;;;;;5033464;28;19966;-71
2022/08/20 04:27:40;;;;;;;;;;;17.10;99.90;;;;;;5033013;28;20295;-71
2022/08/20 04:30:08;;;;;;;;;;;17.10;99.90;;;;;;5033126;28;20439;-71
2022/08/20 04:32:35;;;;;;;;;;;17.10;99.90;;;;;;5033049;28;20015;-71
2022/08/20 04:35:06;;;;;;;;;;;17.10;99.90;;;;;;5033296;28;19928;-71
2022/08/20 04:37:32;;;;;;;;;;;17.00;99.90;;;;;;5032753;28;20414;-71
2022/08/20 04:42:46;;;;;;;;;;;17.00;99.90;;;;;;5019926;28;19971;-71
2022/08/20 04:45:12;;;;;;;;;;;17.00;99.90;;;;;;5031546;28;19925;-70
2022/08/20 04:47:37;;;;;;;;;;;17.00;99.90;;;;;;5031868;28;19956;-71
2022/08/20 04:50:03;;;;;;;;;;;17.00;99.90;;;;;;5032772;28;20332;-71
2022/08/20 04:52:31;;;;;;;;;;;17.00;99.90;;;;;;5032927;28;20470;-71
2022/08/20 04:54:57;;;;;;;;;;;16.90;99.90;;;;;;5030631;28;19932;-71
2022/08/20 04:57:24;;;;;;;;;;;16.90;99.90;;;;;;5030262;28;19929;-71
2022/08/20 04:59:51;;;;;;;;;;;16.90;99.90;;;;;;5027668;28;19928;-72
2022/08/20 05:02:17;;;;;;;;;;;16.80;99.90;;;;;;5032606;28;20565;-72
2022/08/20 05:04:42;;;;;;;;;;;16.90;99.90;;;;;;5032399;28;20003;-72
2022/08/20 05:07:09;;;;;;;;;;;16.90;99.90;;;;;;5031985;28;20391;-71
2022/08/20 05:09:35;;;;;;;;;;;16.90;99.90;;;;;;5032308;28;19928;-71
2022/08/20 05:12:00;;;;;;;;;;;16.90;99.90;;;;;;5032079;28;19921;-72
2022/08/20 05:14:26;;;;;;;;;;;16.90;99.90;;;;;;5032094;28;19964;-71
2022/08/20 05:16:52;;;;;;;;;;;16.90;99.90;;;;;;5032372;28;19921;-71
2022/08/20 05:19:18;;;;;;;;;;;16.90;99.90;;;;;;5032419;28;19928;-72
2022/08/20 05:21:43;;;;;;;;;;;16.90;99.90;;;;;;5031656;28;19924;-72
2022/08/20 05:24:10;;;;;;;;;;;16.90;99.90;;;;;;5032085;28;19921;-72
2022/08/20 05:26:35;;;;;;;;;;;16.90;99.90;;;;;;5032137;28;20008;-71
2022/08/20 05:29:03;;;;;;;;;;;16.90;99.90;;;;;;5031973;28;20104;-72
2022/08/20 05:31:29;;;;;;;;;;;16.90;99.90;;;;;;5031540;28;19925;-72
2022/08/20 05:33:56;;;;;;;;;;;16.80;99.90;;;;;;5031882;28;20388;-72
2022/08/20 05:36:22;;;;;;;;;;;16.90;99.90;;;;;;5032116;28;19920;-71
2022/08/20 05:38:47;;;;;;;;;;;16.90;99.90;;;;;;5032032;28;19925;-72
2022/08/20 05:41:13;;;;;;;;;;;16.80;99.90;;;;;;5031859;28;19921;-72
2022/08/20 05:43:39;;;;;;;;;;;16.80;99.90;;;;;;5031848;28;19944;-71
2022/08/20 05:46:04;;;;;;;;;;;16.90;99.90;;;;;;5031556;28;19921;-71
2022/08/20 05:48:33;;;;;;;;;;;16.80;99.90;;;;;;5031869;28;20474;-72
2022/08/20 05:50:59;;;;;;;;;;;16.80;99.90;;;;;;5031996;28;19927;-72
2022/08/20 05:53:25;;;;;;;;;;;16.80;99.90;;;;;;5031455;28;20319;-70
2022/08/20 05:55:51;;;;;;;;;;;16.80;99.90;;;;;;5031137;28;20012;-72
2022/08/20 05:58:22;;;;;;;;;;;16.80;99.90;;;;;;5022840;28;19921;-71
2022/08/20 06:00:49;;;;;;;;;;;16.80;99.90;;;;;;5031430;28;20359;-72
2022/08/20 06:05:59;;;;;;;;;;;16.80;99.90;;;;;;5031879;28;19947;-72
2022/08/20 06:08:24;;;;;;;;;;;16.70;99.90;;;;;;5031280;28;19983;-71
2022/08/20 06:10:50;;;;;;;;;;;16.80;99.90;;;;;;5031163;28;19932;-71
2022/08/20 06:13:15;;;;;;;;;;;16.80;99.90;;;;;;5031308;28;19925;-71
2022/08/20 06:15:41;;;;;;;;;;;16.80;99.90;;;;;;5031110;28;19967;-71
2022/08/20 06:18:07;;;;;;;;;;;16.80;99.90;;;;;;5030929;28;19932;-72
2022/08/20 06:20:34;;;;;;;;;;;16.90;99.90;;;;;;5030758;28;19928;-70
2022/08/20 06:22:59;;;;;;;;;;;17.00;99.90;;;;;;5031179;28;19921;-71
2022/08/20 06:25:25;;;;;;;;;;;17.10;99.90;;;;;;5030099;28;20016;-72
2022/08/20 06:27:50;;;;;;;;;;;17.10;99.90;;;;;;5030863;28;20380;-71
2022/08/20 06:30:16;;;;;;;;;;;17.20;99.90;;;;;;5031100;28;19925;-71
2022/08/20 06:32:42;;;;;;;;;;;17.20;99.90;;;;;;5030423;28;19925;-71
2022/08/20 06:35:08;;;;;;;;;;;17.30;99.90;;;;;;5030787;28;19921;-71
2022/08/20 06:37:35;;;;;;;;;;;17.40;99.90;;;;;;5030634;28;19921;-71
2022/08/20 06:40:04;;;;;;;;;;;17.40;99.90;;;;;;5030510;28;20012;-70
2022/08/20 06:42:30;;;;;;;;;;;17.50;99.90;;;;;;5030355;28;19921;-72
2022/08/20 06:44:58;;;;;;;;;;;17.60;99.90;;;;;;5030390;28;19925;-72
2022/08/20 06:47:23;;;;;;;;;;;17.60;99.90;;;;;;5030337;28;19929;-71
2022/08/20 06:49:49;;;;;;;;;;;17.70;99.90;;;;;;5030375;28;20012;-71
2022/08/20 06:52:15;;;;;;;;;;;17.70;99.90;;;;;;5030069;28;19921;-71
2022/08/20 06:54:41;;;;;;;;;;;17.80;99.90;;;;;;5029792;28;19928;-72
2022/08/20 06:57:07;;;;;;;;;;;17.80;99.90;;;;;;5029559;28;19925;-72
2022/08/20 06:59:32;;;;;;;;;;;17.90;99.90;;;;;;5023005;28;19925;-72
2022/08/20 07:01:58;;;;;;;;;;;17.90;99.90;;;;;;5029112;28;19921;-71
2022/08/20 07:04:24;;;;;;;;;;;18.00;99.90;;;;;;5029486;28;19921;-73
2022/08/20 07:06:51;;;;;;;;;;;18.10;99.90;;;;;;5029256;28;20460;-71
2022/08/20 07:09:17;;;;;;;;;;;18.20;99.90;;;;;;5029286;28;20644;-72
2022/08/20 07:11:43;;;;;;;;;;;18.30;99.90;;;;;;5029999;28;20298;-71
2022/08/20 07:14:08;;;;;;;;;;;18.30;99.90;;;;;;5030368;28;19928;-72
2022/08/20 07:16:34;;;;;;;;;;;18.40;99.90;;;;;;5030036;28;19924;-72
2022/08/20 07:19:00;;;;;;;;;;;18.50;99.90;;;;;;5029725;28;19925;-73
2022/08/20 07:21:25;;;;;;;;;;;18.50;99.90;;;;;;5029981;28;19928;-72
2022/08/20 07:23:52;;;;;;;;;;;18.60;99.90;;;;;;5029977;28;19921;-72
2022/08/20 07:26:17;;;;;;;;;;;18.70;99.90;;;;;;5029740;28;19959;-71
2022/08/20 07:28:43;;;;;;;;;;;18.70;99.90;;;;;;5029709;28;20502;-72
2022/08/20 07:33:53;;;;;;;;;;;18.80;99.90;;;;;;5029578;28;19921;-71
2022/08/20 07:36:19;;;;;;;;;;;18.90;99.90;;;;;;5030003;28;19921;-71
2022/08/20 07:38:46;;;;;;;;;;;19.00;99.90;;;;;;5029430;28;19928;-71
2022/08/20 07:41:13;;;;;;;;;;;19.00;99.90;;;;;;5027810;28;19932;-71
2022/08/20 07:43:39;;;;;;;;;;;19.10;99.90;;;;;;5029633;28;20372;-71
2022/08/20 07:46:09;;;;;;;;;;;19.10;99.90;;;;;;5029901;28;20054;-71
2022/08/20 07:48:35;;;;;;;;;;;19.20;99.90;;;;;;5029846;28;19996;-71
2022/08/20 07:51:03;;;;;;;;;;;19.20;99.90;;;;;;5029835;28;19943;-72
2022/08/20 07:53:28;;;;;;;;;;;19.40;99.90;;;;;;5029443;28;19921;-71
2022/08/20 07:55:54;;;;;;;;;;;19.40;99.90;;;;;;5029289;28;19921;-71
2022/08/20 07:58:22;;;;;;;;;;;19.50;99.90;;;;;;5021472;28;19921;-71
2022/08/20 08:00:48;;;;;;;;;;;19.60;99.90;;;;;;5029911;28;19921;-71
2022/08/20 08:03:14;;;;;;;;;;;19.70;99.90;;;;;;5029315;28;19960;-71
2022/08/20 08:05:40;;;;;;;;;;;19.80;99.90;;;;;;5029464;28;20299;-71
2022/08/20 08:08:07;;;;;;;;;;;19.90;99.90;;;;;;5029115;28;19979;-71
2022/08/20 08:10:34;;;;;;;;;;;20.00;99.90;;;;;;5029639;28;20045;-71
2022/08/20 08:13:01;;;;;;;;;;;20.10;99.90;;;;;;5029346;28;19929;-71
2022/08/20 08:15:30;;;;;;;;;;;20.10;99.90;;;;;;5029614;28;20462;-71
2022/08/20 08:17:58;;;;;;;;;;;20.20;99.90;;;;;;5028968;28;19921;-71
2022/08/20 08:20:24;;;;;;;;;;;20.20;99.90;;;;;;5029333;28;20437;-71
2022/08/20 08:22:50;;;;;;;;;;;20.20;99.90;;;;;;5029185;28;19976;-71
2022/08/20 08:25:16;;;;;;;;;;;20.20;99.90;;;;;;5029309;28;19921;-71
2022/08/20 08:27:42;;;;;;;;;;;20.30;99.90;;;;;;5028920;28;20006;-71
2022/08/20 08:30:08;;;;;;;;;;;20.30;99.90;;;;;;5028972;28;19921;-71
2022/08/20 08:33:26;;;;;;;;;;;20.30;99.90;;;;;;5029352;28;20019;-71
2022/08/20 08:35:22;;;;;;;;;;;20.30;99.90;;;;;;5028302;28;20012;-71
2022/08/20 08:37:48;;;;;;;;;;;20.30;99.90;;;;;;5028110;28;20609;-72
2022/08/20 08:40:14;;;;;;;;;;;20.40;99.90;;;;;;5028654;28;20024;-71
2022/08/20 08:42:43;;;;;;;;;;;20.50;99.90;;;;;;5028866;28;20303;-71
2022/08/20 08:45:11;;;;;;;;;;;20.60;99.90;;;;;;5028474;28;20371;-72
2022/08/20 08:47:37;;;;;;;;;;;20.80;99.90;;;;;;5029190;28;19929;-71
2022/08/20 08:50:06;;;;;;;;;;;20.90;99.90;;;;;;5033012;28;19968;-71
2022/08/20 08:52:33;;;;;;;;;;;20.80;99.90;;;;;;5032438;28;19921;-71
2022/08/20 08:55:00;;;;;;;;;;;20.70;99.90;;;;;;5032446;28;20286;-72
2022/08/20 08:57:26;;;;;;;;;;;20.80;99.90;;;;;;5029707;28;19921;-72
2022/08/20 08:59:54;;;;;;;;;;;21.00;99.90;;;;;;5027632;28;19931;-72
2022/08/20 09:02:20;;;;;;;;;;;21.00;99.90;;;;;;5031142;28;19921;-72
2022/08/20 09:04:46;;;;;;;;;;;21.00;99.90;;;;;;5032561;28;20052;-72
2022/08/20 09:07:15;;;;;;;;;;;21.10;99.90;;;;;;5031098;28;20011;-71
2022/08/20 09:09:42;;;;;;;;;;;21.30;99.90;;;;;;5031290;28;20403;-70
2022/08/20 09:12:09;;;;;;;;;;;21.30;99.90;;;;;;5032411;28;20344;-70
2022/08/20 09:14:35;;;;;;;;;;;21.50;99.90;;;;;;5031909;28;19948;-70
2022/08/20 09:17:01;;;;;;;;;;;21.50;99.90;;;;;;5032270;28;19928;-70
2022/08/20 09:19:27;;;;;;;;;;;21.60;99.90;;;;;;5032057;28;19987;-70
2022/08/20 09:21:52;;;;;;;;;;;21.70;99.90;;;;;;5032514;28;19971;-70
2022/08/20 09:24:18;;;;;;;;;;;21.70;99.80;;;;;;5031519;28;20626;-70
2022/08/20 09:26:44;;;;;;;;;;;21.60;99.60;;;;;;5032342;28;19925;-70
2022/08/20 09:29:10;;;;;;;;;;;21.70;99.90;;;;;;5031823;28;20276;-71
2022/08/20 09:31:36;;;;;;;;;;;22.40;99.90;;;;;;5031682;28;20338;-71
2022/08/20 09:34:01;;;;;;;;;;;22.80;98.80;;;;;;5030873;28;19952;-71
2022/08/20 09:36:27;;;;;;;;;;;23.30;98.70;;;;;;5032023;28;19925;-70
2022/08/20 09:38:53;;;;;;;;;;;24.00;97.40;;;;;;5031482;28;19929;-71
2022/08/20 09:41:18;;;;;;;;;;;24.50;97.10;;;;;;5032344;28;19935;-71
2022/08/20 09:43:44;;;;;;;;;;;25.00;95.20;;;;;;5031520;28;20008;-70
2022/08/20 09:46:09;;;;;;;;;;;24.90;94.10;;;;;;5031449;28;19920;-70
2022/08/20 09:48:35;;;;;;;;;;;24.70;94.10;;;;;;5031027;28;19925;-71
2022/08/20 09:51:01;;;;;;;;;;;24.70;94.30;;;;;;5030730;28;19928;-72
2022/08/20 09:53:27;;;;;;;;;;;24.60;94.20;;;;;;5031029;28;19929;-72
2022/08/20 09:55:53;;;;;;;;;;;24.50;93.50;;;;;;5030869;28;19925;-71
2022/08/20 09:58:36;;;;;;;;;;;24.70;93.90;;;;;;5023081;28;19983;-72
2022/08/20 10:01:05;;;;;;;;;;;25.30;94.40;;;;;;5031398;28;19929;-72
2022/08/20 10:03:31;;;;;;;;;;;26.20;92.90;;;;;;5031139;28;20003;-72
2022/08/20 10:05:56;;;;;;;;;;;26.70;90.90;;;;;;5031167;28;20356;-72
2022/08/20 10:08:22;;;;;;;;;;;27.20;91.50;;;;;;5029991;28;20000;-72
2022/08/20 10:10:47;;;;;;;;;;;27.10;90.20;;;;;;5030583;28;19948;-72
2022/08/20 10:13:13;;;;;;;;;;;26.60;90.70;;;;;;5030324;28;19925;-72
2022/08/20 10:15:39;;;;;;;;;;;26.10;89.50;;;;;;5030606;28;19929;-70
2022/08/20 10:18:06;;;;;;;;;;;25.60;90.60;;;;;;5030316;28;19956;-71
2022/08/20 10:20:32;;;;;;;;;;;25.10;90.80;;;;;;5030484;28;19925;-71
2022/08/20 10:22:59;;;;;;;;;;;24.70;91.10;;;;;;5029756;28;20015;-71
2022/08/20 10:25:24;;;;;;;;;;;24.30;92.10;;;;;;5030326;28;20933;-70
2022/08/20 10:27:50;;;;;;;;;;;24.60;92.00;;;;;;5029834;28;19921;-71
2022/08/20 10:30:15;;;;;;;;;;;25.30;91.00;;;;;;5030267;28;20738;-71
2022/08/20 10:32:41;;;;;;;;;;;26.10;91.10;;;;;;5030125;28;19971;-70
2022/08/20 10:35:07;;;;;;;;;;;26.50;90.30;;;;;;5031184;28;19925;-70
2022/08/20 10:37:33;;;;;;;;;;;26.40;88.70;;;;;;5030726;28;19925;-72
2022/08/20 10:39:59;;;;;;;;;;;26.10;88.40;;;;;;5030687;28;19921;-71
2022/08/20 10:42:24;;;;;;;;;;;25.80;89.80;;;;;;5030724;28;19921;-71
2022/08/20 10:44:50;;;;;;;;;;;25.50;88.60;;;;;;5030959;28;19943;-72
2022/08/20 10:47:17;;;;;;;;;;;25.30;88.60;;;;;;5030469;28;20004;-72
2022/08/20 10:49:43;;;;;;;;;;;25.30;88.20;;;;;;5030622;28;20628;-72
2022/08/20 10:52:08;;;;;;;;;;;25.70;89.20;;;;;;5030442;28;19921;-71
2022/08/20 10:54:34;;;;;;;;;;;26.30;88.60;;;;;;5030494;28;19924;-72
2022/08/20 10:57:01;;;;;;;;;;;26.30;85.90;;;;;;5030141;28;19960;-71
2022/08/20 10:59:26;;;;;;;;;;;26.10;87.10;;;;;;5022787;28;19925;-71
2022/08/20 11:01:52;;;;;;;;;;;25.80;86.90;;;;;;5028904;28;19920;-71
2022/08/20 11:04:17;;;;;;;;;;;25.60;86.70;;;;;;5030199;28;19995;-71
2022/08/20 11:06:43;;;;;;;;;;;25.50;87.80;;;;;;5030455;28;19928;-71
2022/08/20 11:09:08;;;;;;;;;;;25.50;88.20;;;;;;5030691;28;19921;-71
2022/08/20 11:11:34;;;;;;;;;;;25.40;87.50;;;;;;5029807;28;19944;-71
2022/08/20 11:13:59;;;;;;;;;;;25.20;86.90;;;;;;5030277;28;20303;-72
2022/08/20 11:16:25;;;;;;;;;;;25.20;87.40;;;;;;5030450;28;19928;-71
2022/08/20 11:18:50;;;;;;;;;;;25.10;86.70;;;;;;5030010;28;20395;-71
2022/08/20 11:21:16;;;;;;;;;;;25.10;88.40;;;;;;5029693;28;19924;-71
2022/08/20 11:23:41;;;;;;;;;;;25.20;87.70;;;;;;5028852;28;19971;-71
2022/08/20 11:26:07;;;;;;;;;;;25.40;86.30;;;;;;5030146;28;20002;-71
2022/08/20 11:28:33;;;;;;;;;;;25.70;87.40;;;;;;5029779;28;20330;-71
2022/08/20 11:30:59;;;;;;;;;;;25.60;85.60;;;;;;5029084;28;19960;-71
2022/08/20 11:33:24;;;;;;;;;;;25.80;87.10;;;;;;5029828;28;19921;-71
2022/08/20 11:35:50;;;;;;;;;;;26.20;84.70;;;;;;5029370;28;20439;-72
2022/08/20 11:38:17;;;;;;;;;;;26.50;84.10;;;;;;5029885;28;19932;-71
2022/08/20 11:40:42;;;;;;;;;;;26.70;84.50;;;;;;5029577;28;19950;-71
2022/08/20 11:43:08;;;;;;;;;;;27.20;83.50;;;;;;5029497;28;19921;-71
2022/08/20 11:45:33;;;;;;;;;;;27.40;81.70;;;;;;5029830;28;19959;-71
2022/08/20 11:47:59;;;;;;;;;;;27.20;81.80;;;;;;5029856;28;20013;-71
2022/08/20 11:50:24;;;;;;;;;;;26.90;79.60;;;;;;5029643;28;20309;-70
2022/08/20 11:52:50;;;;;;;;;;;26.50;81.50;;;;;;5029753;28;19924;-70
2022/08/20 11:55:16;;;;;;;;;;;26.40;81.70;;;;;;5028888;28;19921;-71
2022/08/20 11:57:43;;;;;;;;;;;26.30;80.40;;;;;;5024406;28;19922;-71
2022/08/20 12:00:13;;;;;;;;;;;26.40;79.60;;;;;;5026921;28;19921;-71
2022/08/20 12:02:39;;;;;;;;;;;26.50;80.40;;;;;;5029365;28;20382;-70
2022/08/20 12:05:05;;;;;;;;;;;26.40;80.20;;;;;;5016563;28;19936;-71
2022/08/20 12:07:30;;;;;;;;;;;26.50;78.70;;;;;;5029316;28;19956;-71
2022/08/20 12:09:56;;;;;;;;;;;26.60;79.30;;;;;;5029542;28;19974;-70
2022/08/20 12:12:25;;;;;;;;;;;26.80;77.00;;;;;;5029368;28;19925;-70
2022/08/20 12:14:51;;;;;;;;;;;26.70;79.00;;;;;;5029320;28;19979;-70
2022/08/20 12:17:20;;;;;;;;;;;26.60;77.60;;;;;;5029067;28;19924;-70
2022/08/20 12:19:46;;;;;;;;;;;26.40;77.60;;;;;;5029396;28;19976;-70
2022/08/20 12:22:11;;;;;;;;;;;26.20;79.40;;;;;;5029871;28;19968;-70
2022/08/20 12:24:37;;;;;;;;;;;26.00;79.60;;;;;;5033356;28;19925;-71
2022/08/20 12:27:13;;;;;;;;;;;26.00;78.10;;;;;;5033395;28;19921;-72
2022/08/20 12:29:39;;;;;;;;;;;25.80;78.80;;;;;;5020488;28;19971;-70
2022/08/20 12:32:06;;;;;;;;;;;25.60;78.10;;;;;;5032822;28;19960;-70
2022/08/20 12:34:35;;;;;;;;;;;25.50;78.30;;;;;;5033261;28;19925;-70
2022/08/20 12:37:06;;;;;;;;;;;25.60;79.30;;;;;;5033175;28;19921;-72
2022/08/20 12:39:33;;;;;;;;;;;26.10;80.10;;;;;;5033368;28;20291;-70
2022/08/20 12:42:01;;;;;;;;;;;26.60;78.60;;;;;;5033019;28;20443;-71
2022/08/20 12:44:28;;;;;;;;;;;27.20;77.70;;;;;;5033054;28;20426;-71
2022/08/20 12:47:05;;;;;;;;;;;27.90;77.00;;;;;;5032351;28;20007;-72
2022/08/20 12:49:31;;;;;;;;;;;28.20;76.70;;;;;;5033038;28;19925;-71
2022/08/20 12:51:56;;;;;;;;;;;28.60;74.80;;;;;;5033112;28;20019;-71
2022/08/20 12:54:22;;;;;;;;;;;28.80;71.90;;;;;;5032580;28;19921;-72
2022/08/20 12:56:47;;;;;;;;;;;28.70;72.00;;;;;;5032489;28;19925;-70
2022/08/20 12:59:13;;;;;;;;;;;28.40;72.80;;;;;;5024678;28;19921;-71
2022/08/20 13:01:38;;;;;;;;;;;28.10;73.20;;;;;;5032341;28;19921;-71
2022/08/20 13:04:04;;;;;;;;;;;27.80;74.60;;;;;;5032678;28;19971;-71
2022/08/20 13:06:29;;;;;;;;;;;27.60;76.10;;;;;;5032354;28;19921;-70
2022/08/20 13:08:55;;;;;;;;;;;27.70;76.50;;;;;;5032751;28;19921;-71
2022/08/20 13:11:20;;;;;;;;;;;28.10;75.90;;;;;;5032283;28;20310;-71
2022/08/20 13:13:46;;;;;;;;;;;28.30;76.00;;;;;;5032429;28;20670;-72
2022/08/20 13:16:13;;;;;;;;;;;28.70;74.80;;;;;;5032323;28;19932;-70
2022/08/20 13:18:38;;;;;;;;;;;29.30;74.10;;;;;;5032428;28;19956;-71
2022/08/20 13:21:04;;;;;;;;;;;29.40;74.10;;;;;;5032379;28;20029;-71
2022/08/20 13:23:29;;;;;;;;;;;29.10;74.20;;;;;;5031882;28;20657;-71
2022/08/20 13:25:55;;;;;;;;;;;28.80;73.70;;;;;;5032187;28;19964;-70
2022/08/20 13:28:20;;;;;;;;;;;28.50;73.20;;;;;;5032313;28;20382;-71
2022/08/20 13:30:46;;;;;;;;;;;28.20;73.90;;;;;;5032243;28;19929;-71
2022/08/20 13:33:11;;;;;;;;;;;27.90;73.90;;;;;;5032011;28;20016;-72
2022/08/20 13:35:37;;;;;;;;;;;27.70;74.30;;;;;;5031300;28;20624;-71
2022/08/20 13:38:02;;;;;;;;;;;27.50;73.70;;;;;;5031629;28;19921;-71
2022/08/20 13:40:28;;;;;;;;;;;28.10;74.00;;;;;;5031706;28;19921;-71
2022/08/20 13:42:54;;;;;;;;;;;28.60;72.40;;;;;;5032057;28;19921;-71
2022/08/20 13:45:19;;;;;;;;;;;29.00;72.30;;;;;;5031675;28;19929;-72
2022/08/20 13:47:45;;;;;;;;;;;29.40;71.60;;;;;;5032226;28;20322;-70
2022/08/20 13:50:15;;;;;;;;;;;29.50;70.50;;;;;;5029930;28;19935;-70
2022/08/20 13:52:41;;;;;;;;;;;29.30;71.00;;;;;;5031589;28;19921;-71
2022/08/20 13:55:08;;;;;;;;;;;28.90;70.80;;;;;;5031711;28;20360;-71
2022/08/20 13:57:33;;;;;;;;;;;28.70;72.50;;;;;;5027584;28;19927;-70
2022/08/20 13:59:59;;;;;;;;;;;28.50;71.30;;;;;;5027496;28;20015;-71
2022/08/20 14:02:25;;;;;;;;;;;28.10;71.80;;;;;;5031548;28;19928;-71
2022/08/20 14:04:51;;;;;;;;;;;27.80;71.90;;;;;;5031213;28;19929;-72
2022/08/20 14:07:18;;;;;;;;;;;27.50;72.80;;;;;;5031605;28;19960;-70
2022/08/20 14:09:45;;;;;;;;;;;27.20;71.90;;;;;;5031469;28;19932;-71
2022/08/20 14:12:12;;;;;;;;;;;27.00;73.40;;;;;;5031433;28;19925;-70
2022/08/20 14:14:38;;;;;;;;;;;26.70;73.40;;;;;;5030870;28;20307;-70
2022/08/20 14:17:12;;;;;;;;;;;26.50;73.90;;;;;;5030511;28;20429;-71
2022/08/20 14:19:38;;;;;;;;;;;26.40;74.20;;;;;;5030163;28;20307;-71